ADDS METAR Data INFO
IDs: Format: Raw Decoded Include TAF

Data at: 1323 UTC 11 Dec 2017

KGCK 111254Z 29010KT 10SM CLR M02/M16 A3022 RMK AO2 SLP243 T10221156
KGCK 111154Z AUTO 30012KT 10SM CLR M02/M15 A3022 RMK AO2 SLP238 T10171150 10011 21056 53000
KGCK 111054Z AUTO 31012KT 10SM CLR M01/M15 A3021 RMK AO2 SLP233 T10061150
KGCK 110954Z AUTO 28009KT 10SM CLR M04/M14 A3021 RMK AO2 SLP231 T10441144
KGCK 110854Z AUTO 28009KT 10SM CLR M03/M16 A3021 RMK AO2 SLP233 T10331156 58015
KGCK 110754Z AUTO 31010KT 10SM CLR M01/M14 A3023 RMK AO2 SLP239 T10111144
KGCK 110654Z AUTO 28011KT 10SM CLR 01/M15 A3026 RMK AO2 SLP244 T00061150
KGCK 110554Z AUTO 28011KT 10SM CLR 01/M15 A3026 RMK AO2 SLP248 T00061150 10122 21006 401831028 56004
KGCK 110454Z AUTO 30010KT 10SM CLR M01/M14 A3027 RMK AO2 SLP255 T10061144
KGCK 110354Z AUTO 28009KT 10SM CLR 01/M14 A3026 RMK AO2 SLP259 T00061139
KGCK 110254Z 29010KT 10SM CLR 03/M14 A3028 RMK AO2 SLP265 T00331139 56001
KGCK 110154Z 28009KT 10SM CLR 04/M13 A3028 RMK AO2 SLP270 T00441133
KGCK 110054Z 28005KT 9SM CLR 11/M16 A3027 RMK AO2 SLP261 T01061161
KGCK 102354Z 33004KT 10SM CLR 12/M14 A3028 RMK AO2 SLP262 T01221144 10183 20117 58005
KGCK 102254Z 30004KT 10SM CLR 16/M17 A3029 RMK AO2 SLP257 T01561172
KGCK 102154Z 33007KT 10SM CLR 18/M18 A3029 RMK AO2 SLP256 T01831178
KGCK 102054Z 32011KT 10SM CLR 18/M18 A3029 RMK AO2 SLP258 T01831183 56021
KGCK 101954Z 33009KT 10SM CLR 18/M17 A3032 RMK AO2 SLP263 T01781172
KGCK 101854Z 32012KT 10SM CLR 17/M16 A3034 RMK AO2 SLP274 T01671161
KGCK 101754Z 34011KT 10SM CLR 16/M14 A3036 RMK AO2 SLP284 T01561139 10156 21028 50004
KGCK 101654Z 30012KT 10SM CLR 12/M14 A3037 RMK AO2 SLP291 T01171139
KGCK 101554Z 28013KT 10SM CLR 07/M14 A3037 RMK AO2 SLP296 T00671139
KGCK 101454Z 29012KT 10SM CLR 02/M14 A3035 RMK AO2 SLP293 T00221139 51012
KGCK 101354Z 28012KT 10SM CLR M02/M14 A3034 RMK AO2 SLP291 T10221139
KGCK 101254Z 29010KT 10SM CLR M02/M14 A3033 RMK AO2 SLP289 T10171139
KGCK 101154Z AUTO 28011KT 10SM CLR M02/M13 A3031 RMK AO2 SLP276 T10221133 10017 21022 53000
KGCK 101054Z AUTO 29011KT 10SM CLR M01/M13 A3030 RMK AO2 SLP270 T10061133
KGCK 100954Z AUTO 28011KT 10SM CLR M01/M13 A3031 RMK AO2 SLP269 T10111128
KGCK 100854Z AUTO 29010KT 10SM CLR M01/M13 A3031 RMK AO2 SLP270 T10111128 55002
KGCK 100754Z AUTO 30010KT 10SM CLR 02/M13 A3031 RMK AO2 SLP266 T00171128
KGCK 100654Z AUTO 30010KT 10SM CLR M01/M12 A3031 RMK AO2 SLP269 T10061122
KGCK 100554Z AUTO 29011KT 10SM CLR M02/M11 A3032 RMK AO2 SLP276 T10171111 10089 21033 401391061 53010
KGCK 100454Z AUTO 29010KT 10SM CLR 00/M11 A3030 RMK AO2 SLP271 T00001111
KGCK 100354Z AUTO 28008KT 10SM CLR M01/M11 A3030 RMK AO2 SLP275 T10111111
KGCK 100254Z 29009KT 10SM CLR 01/M11 A3029 RMK AO2 SLP274 T00061111 53007
KGCK 100154Z 28007KT 10SM CLR 04/M11 A3027 RMK AO2 SLP273 T00391111